Time;durP1;ratioP1;P1;durP2;ratioP2;P2;SDS_P1;SDS_P2;PMS_P1;PMS_P2;Temp;Humidity;BMP_temperature;BMP_pressure;BME280_temperature;BME280_humidity;BME280_pressure;Samples;Min_cycle;Max_cycle;Signal;HPM_P1;HPM_P2
2022/04/13 00:01:40;;;;;;;;;;;;;;;3.26;84.69;98885.38;4920782;29;19962;-61
2022/04/13 00:04:06;;;;;;;;;;;;;;;3.15;85.25;98880.78;4937575;29;19974;-59
2022/04/13 00:06:31;;;;;;;;;;;;;;;3.18;85.53;98885.63;4937870;29;19945;-60
2022/04/13 00:08:57;;;;;;;;;;;;;;;3.18;85.13;98891.66;4937262;29;19930;-59
2022/04/13 00:11:22;;;;;;;;;;;;;;;3.11;85.60;98890.03;4937478;29;19959;-59
2022/04/13 00:13:48;;;;;;;;;;;;;;;3.08;85.40;98888.63;4937630;29;20336;-61
2022/04/13 00:16:13;;;;;;;;;;;;;;;3.11;85.56;98885.59;4937562;29;20115;-60
2022/04/13 00:18:39;;;;;;;;;;;;;;;3.12;85.74;98884.59;4937407;29;19930;-61
2022/04/13 00:21:04;;;;;;;;;;;;;;;3.22;84.70;98883.41;4937438;29;20021;-61
2022/04/13 00:23:31;;;;;;;;;;;;;;;3.23;84.69;98882.38;4931837;29;19930;-62
2022/04/13 00:25:57;;;;;;;;;;;;;;;3.28;84.65;98883.38;4955136;28;19927;-61
2022/04/13 00:28:23;;;;;;;;;;;;;;;3.24;84.75;98879.56;4923315;29;20400;-60
2022/04/13 00:30:48;;;;;;;;;;;;;;;3.19;84.88;98882.78;4956514;29;19926;-60
2022/04/13 00:33:14;;;;;;;;;;;;;;;3.18;84.71;98883.81;4923229;29;20455;-60
2022/04/13 00:35:39;;;;;;;;;;;;;;;3.10;85.10;98881.38;4956178;29;20036;-60
2022/04/13 00:38:05;;;;;;;;;;;;;;;3.09;85.01;98887.63;4947535;29;19937;-61
2022/04/13 00:40:31;;;;;;;;;;;;;;;3.11;85.11;98875.13;4937068;29;20328;-60
2022/04/13 00:42:56;;;;;;;;;;;;;;;3.07;84.99;98884.41;4936954;29;19930;-60
2022/04/13 00:45:22;;;;;;;;;;;;;;;3.20;85.22;98875.72;4938053;29;19935;-59
2022/04/13 00:47:48;;;;;;;;;;;;;;;3.18;84.55;98868.09;4937276;29;20400;-61
2022/04/13 00:50:13;;;;;;;;;;;;;;;3.15;84.80;98878.97;4936956;29;19930;-61
2022/04/13 00:52:40;;;;;;;;;;;;;;;3.15;84.84;98875.53;4925212;29;20355;-61
2022/04/13 00:55:06;;;;;;;;;;;;;;;3.13;84.62;98880.16;4956173;29;19930;-61
2022/04/13 00:57:32;;;;;;;;;;;;;;;3.10;84.95;98893.66;4955172;29;19926;-61
2022/04/13 00:59:58;;;;;;;;;;;;;;;3.13;84.63;98885.41;4956035;29;19936;-60
2022/04/13 01:02:23;;;;;;;;;;;;;;;3.16;84.59;98887.63;4938471;29;20431;-60
2022/04/13 01:04:49;;;;;;;;;;;;;;;3.13;84.60;98890.66;4955704;29;19931;-61
2022/04/13 01:07:14;;;;;;;;;;;;;;;3.13;84.73;98893.25;4950997;29;19933;-60
2022/04/13 01:09:40;;;;;;;;;;;;;;;3.10;84.93;98883.19;4919433;29;19931;-60
2022/04/13 01:12:06;;;;;;;;;;;;;;;3.04;84.96;98884.00;4936422;29;19933;-60
2022/04/13 01:14:32;;;;;;;;;;;;;;;3.06;84.75;98889.81;4936564;29;19934;-59
2022/04/13 01:16:58;;;;;;;;;;;;;;;3.13;84.60;98880.16;4936493;29;19966;-59
2022/04/13 01:19:24;;;;;;;;;;;;;;;3.12;84.85;98879.38;4919372;29;19930;-61
2022/04/13 01:21:58;;;;;;;;;;;;;;;3.21;84.45;98885.22;4936242;29;20069;-61
2022/04/13 01:24:23;;;;;;;;;;;;;;;3.12;84.38;98881.19;4936229;29;20021;-60
2022/04/13 01:26:49;;;;;;;;;;;;;;;3.04;85.03;98881.38;4936307;29;20017;-61
2022/04/13 01:29:14;;;;;;;;;;;;;;;3.07;84.80;98875.75;4936073;29;19950;-60
2022/04/13 01:31:40;;;;;;;;;;;;;;;3.12;84.87;98884.59;4935968;29;19926;-60
2022/04/13 01:34:06;;;;;;;;;;;;;;;3.11;84.25;98882.97;4935970;29;19938;-61
2022/04/13 01:36:35;;;;;;;;;;;;;;;3.14;84.40;98881.78;4918787;29;19933;-61
2022/04/13 01:39:01;;;;;;;;;;;;;;;3.09;84.39;98878.94;4936360;29;20400;-59
2022/04/13 01:41:27;;;;;;;;;;;;;;;3.05;84.58;98896.06;4954718;29;19933;-61
2022/04/13 01:43:52;;;;;;;;;;;;;;;3.09;84.34;98892.88;4937763;29;20400;-61
2022/04/13 01:46:18;;;;;;;;;;;;;;;3.11;84.29;98897.88;4948166;29;19927;-59
2022/04/13 01:48:43;;;;;;;;;;;;;;;3.06;84.30;98887.19;4934831;29;19935;-61
2022/04/13 01:51:09;;;;;;;;;;;;;;;3.06;84.03;98892.44;4935767;29;19929;-61
2022/04/13 01:53:35;;;;;;;;;;;;;;;2.95;84.72;98899.91;4950278;29;19938;-60
2022/04/13 01:56:00;;;;;;;;;;;;;;;2.99;85.17;98895.06;4954741;29;19922;-60
2022/04/13 01:58:26;;;;;;;;;;;;;;;3.01;84.88;98900.09;4954783;29;19958;-61
2022/04/13 02:00:53;;;;;;;;;;;;;;;3.03;84.54;98893.66;4954425;29;19926;-61
2022/04/13 02:03:23;;;;;;;;;;;;;;;3.05;84.48;98901.31;4937395;29;19931;-61
2022/04/13 02:05:50;;;;;;;;;;;;;;;2.98;84.60;98900.50;4940787;29;19926;-61
2022/04/13 02:08:15;;;;;;;;;;;;;;;3.01;84.48;98897.50;4948211;29;20315;-61
2022/04/13 02:10:41;;;;;;;;;;;;;;;2.97;84.73;98904.91;4954450;29;19927;-61
2022/04/13 02:13:06;;;;;;;;;;;;;;;2.92;85.04;98907.34;4954298;29;20307;-60
2022/04/13 02:15:32;;;;;;;;;;;;;;;2.88;85.12;98904.34;4937022;29;19930;-61
2022/04/13 02:17:57;;;;;;;;;;;;;;;2.85;85.23;98901.28;4954379;29;20433;-60
2022/04/13 02:20:23;;;;;;;;;;;;;;;2.83;85.43;98905.94;4937121;29;19926;-61
2022/04/13 02:22:49;;;;;;;;;;;;;;;2.86;85.42;98916.00;4944194;29;19956;-61
2022/04/13 02:25:14;;;;;;;;;;;;;;;2.85;85.31;98924.84;4935146;29;19926;-60
2022/04/13 02:27:40;;;;;;;;;;;;;;;2.85;85.53;98917.78;4935402;29;20292;-60
2022/04/13 02:30:06;;;;;;;;;;;;;;;2.88;85.22;98920.03;4933768;29;19930;-60
2022/04/13 02:32:32;;;;;;;;;;;;;;;2.94;85.25;98921.84;4935283;29;19926;-61
2022/04/13 02:34:57;;;;;;;;;;;;;;;2.92;85.39;98923.84;4917869;29;19935;-61
2022/04/13 02:37:23;;;;;;;;;;;;;;;2.94;84.91;98916.63;4934918;29;19931;-60
2022/04/13 02:39:48;;;;;;;;;;;;;;;3.00;84.83;98935.97;4935223;29;19930;-60
2022/04/13 02:42:15;;;;;;;;;;;;;;;3.06;84.69;98922.06;4917915;29;19922;-60
2022/04/13 02:44:41;;;;;;;;;;;;;;;3.05;84.47;98923.06;4933657;29;19930;-61
2022/04/13 02:47:06;;;;;;;;;;;;;;;3.04;84.78;98923.28;4947481;29;19927;-60
2022/04/13 02:49:32;;;;;;;;;;;;;;;3.06;84.54;98929.09;4953491;28;20412;-59
2022/04/13 02:51:57;;;;;;;;;;;;;;;3.06;84.90;98929.09;4949785;29;19934;-60
2022/04/13 02:54:23;;;;;;;;;;;;;;;2.99;84.56;98925.69;4917762;29;19958;-61
2022/04/13 02:56:48;;;;;;;;;;;;;;;3.01;84.70;98929.72;4917517;29;19978;-60
2022/04/13 02:59:14;;;;;;;;;;;;;;;2.88;85.16;98927.88;4934714;29;19930;-60
2022/04/13 03:01:40;;;;;;;;;;;;;;;3.00;84.93;98929.91;4933284;29;20385;-60
2022/04/13 03:04:05;;;;;;;;;;;;;;;2.95;84.99;98931.31;4934627;29;19937;-61
2022/04/13 03:06:31;;;;;;;;;;;;;;;3.01;85.06;98936.78;4917292;29;19967;-60
2022/04/13 03:08:57;;;;;;;;;;;;;;;3.03;84.89;98943.44;4917798;29;19931;-59
2022/04/13 03:11:22;;;;;;;;;;;;;;;3.02;84.58;98946.22;4934619;29;20022;-61
2022/04/13 03:13:48;;;;;;;;;;;;;;;3.00;84.59;98938.59;4934805;29;20050;-60
2022/04/13 03:16:13;;;;;;;;;;;;;;;2.99;84.73;98938.78;4942468;29;19976;-60
2022/04/13 03:18:39;;;;;;;;;;;;;;;2.95;84.59;98952.25;4953685;29;19930;-60
2022/04/13 03:21:04;;;;;;;;;;;;;;;2.96;84.55;98945.22;4953593;29;20016;-61
2022/04/13 03:23:30;;;;;;;;;;;;;;;3.02;84.59;98952.25;4934631;29;19937;-60
2022/04/13 03:25:55;;;;;;;;;;;;;;;3.00;84.45;98943.81;4953500;29;19922;-59
2022/04/13 03:28:24;;;;;;;;;;;;;;;3.03;84.33;98945.22;4953429;29;19930;-60
2022/04/13 03:30:50;;;;;;;;;;;;;;;3.02;84.40;98949.66;4946976;29;19934;-61
2022/04/13 03:33:17;;;;;;;;;;;;;;;3.10;83.74;98943.44;4933268;29;19931;-59
2022/04/13 03:35:43;;;;;;;;;;;;;;;3.05;83.95;98944.00;4934404;29;20017;-60
2022/04/13 03:38:09;;;;;;;;;;;;;;;3.20;83.50;98954.31;4917912;29;20022;-62
2022/04/13 03:40:34;;;;;;;;;;;;;;;3.18;83.58;98958.97;4917382;29;19977;-60
2022/04/13 03:43:00;;;;;;;;;;;;;;;3.01;83.88;98957.72;4934534;29;19946;-60
2022/04/13 03:45:25;;;;;;;;;;;;;;;3.11;83.77;98961.53;4935702;29;20025;-61
2022/04/13 03:47:51;;;;;;;;;;;;;;;3.12;83.51;98957.94;4953226;29;19973;-59
2022/04/13 03:50:17;;;;;;;;;;;;;;;3.16;83.43;98964.38;4953440;29;19972;-59
2022/04/13 03:52:42;;;;;;;;;;;;;;;3.23;83.64;98972.22;4934164;29;19926;-60
2022/04/13 03:55:09;;;;;;;;;;;;;;;3.23;83.11;98976.69;4951490;29;19937;-61
2022/04/13 03:57:36;;;;;;;;;;;;;;;3.27;83.11;98978.72;4936046;29;19926;-61
2022/04/13 04:00:02;;;;;;;;;;;;;;;3.22;82.79;98970.63;4936600;29;19953;-60
2022/04/13 04:02:38;;;;;;;;;;;;;;;3.27;83.10;98986.56;4940781;29;19922;-61
2022/04/13 04:05:04;;;;;;;;;;;;;;;3.27;83.08;98986.56;4956604;29;19936;-61
2022/04/13 04:07:29;;;;;;;;;;;;;;;3.38;82.61;98983.34;4956964;29;19926;-61
2022/04/13 04:09:55;;;;;;;;;;;;;;;3.37;82.57;98988.78;4954772;29;19938;-63
2022/04/13 04:12:20;;;;;;;;;;;;;;;3.33;82.92;98982.34;4956807;29;19934;-60
2022/04/13 04:14:46;;;;;;;;;;;;;;;3.37;82.44;98981.72;4942881;29;19986;-62
2022/04/13 04:17:12;;;;;;;;;;;;;;;3.25;82.75;98990.38;4937147;29;19938;-60
2022/04/13 04:19:37;;;;;;;;;;;;;;;3.27;82.50;98986.56;4937301;29;20393;-62
2022/04/13 04:22:03;;;;;;;;;;;;;;;3.19;82.83;98998.03;4920394;29;19930;-60
2022/04/13 04:24:29;;;;;;;;;;;;;;;3.21;82.84;98992.59;4948652;29;20368;-62
2022/04/13 04:26:55;;;;;;;;;;;;;;;3.24;82.82;98999.25;4939128;29;19931;-60
2022/04/13 04:29:20;;;;;;;;;;;;;;;3.14;83.23;99000.44;4942647;29;20035;-62
2022/04/13 04:31:53;;;;;;;;;;;;;;;3.11;82.94;99006.06;4927099;29;20014;-61
2022/04/13 04:34:20;;;;;;;;;;;;;;;3.13;82.98;98990.16;4937213;29;19954;-64
2022/04/13 04:36:45;;;;;;;;;;;;;;;3.13;83.09;98990.97;4937163;29;19934;-61
2022/04/13 04:39:11;;;;;;;;;;;;;;;3.15;82.71;98998.63;4937892;29;19930;-63
2022/04/13 04:41:36;;;;;;;;;;;;;;;3.12;82.94;98991.19;4937129;29;19973;-60
2022/04/13 04:44:02;;;;;;;;;;;;;;;3.23;82.75;98998.44;4936781;29;20005;-61
2022/04/13 04:46:28;;;;;;;;;;;;;;;3.24;82.29;98991.41;4937127;29;19975;-61
2022/04/13 04:48:53;;;;;;;;;;;;;;;3.31;82.27;98997.44;4937706;29;19978;-62
2022/04/13 04:51:19;;;;;;;;;;;;;;;3.23;82.46;99005.47;4919504;29;19922;-60
2022/04/13 04:53:47;;;;;;;;;;;;;;;3.31;81.69;98997.44;4936354;29;19931;-64
2022/04/13 04:56:13;;;;;;;;;;;;;;;3.19;82.08;99010.31;4919828;29;19933;-61
2022/04/13 04:58:38;;;;;;;;;;;;;;;3.28;81.82;99000.47;4936428;29;19935;-61
2022/04/13 05:01:04;;;;;;;;;;;;;;;3.40;82.08;99011.97;4936501;29;19926;-62
2022/04/13 05:03:31;;;;;;;;;;;;;;;3.45;81.39;99003.50;4936404;29;20107;-62
2022/04/13 05:05:57;;;;;;;;;;;;;;;3.56;81.07;99010.75;4936064;29;20021;-61
2022/04/13 05:08:24;;;;;;;;;;;;;;;3.54;81.09;99028.50;4907726;29;19966;-62
2022/04/13 05:10:53;;;;;;;;;;;;;;;3.52;81.33;99017.41;4938217;29;20009;-60
2022/04/13 05:13:18;;;;;;;;;;;;;;;3.63;80.92;99019.44;4954403;29;19981;-62
2022/04/13 05:15:45;;;;;;;;;;;;;;;3.65;80.11;99043.66;4954917;29;20009;-62
2022/04/13 05:18:11;;;;;;;;;;;;;;;3.56;80.25;99035.16;4942590;29;19931;-62
2022/04/13 05:20:37;;;;;;;;;;;;;;;3.43;81.05;99032.53;4918923;29;19927;-61
2022/04/13 05:23:02;;;;;;;;;;;;;;;3.40;81.05;99044.22;4937134;29;19935;-61
2022/04/13 05:25:28;;;;;;;;;;;;;;;3.38;81.37;99034.94;4950879;29;19993;-62
2022/04/13 05:27:53;;;;;;;;;;;;;;;3.38;81.13;99027.06;4935243;29;20328;-61
2022/04/13 05:30:19;;;;;;;;;;;;;;;3.39;81.34;99031.31;4952460;29;19923;-61
2022/04/13 05:32:48;;;;;;;;;;;;;;;3.44;81.03;99039.38;4949762;29;19931;-63
2022/04/13 05:35:13;;;;;;;;;;;;;;;3.40;81.13;99025.88;4951178;29;19997;-61
2022/04/13 05:37:39;;;;;;;;;;;;;;;3.41;81.38;99026.66;4934185;29;19934;-60
2022/04/13 05:40:05;;;;;;;;;;;;;;;3.37;81.29;99036.75;4946938;29;19931;-58
2022/04/13 05:42:30;;;;;;;;;;;;;;;3.33;81.51;99025.06;4932010;29;19927;-64
2022/04/13 05:44:57;;;;;;;;;;;;;;;3.50;81.06;99035.16;4931473;29;20030;-61
2022/04/13 05:47:22;;;;;;;;;;;;;;;3.59;80.04;99045.25;4932166;29;20382;-61
2022/04/13 05:49:48;;;;;;;;;;;;;;;3.62;80.10;99038.81;4932389;29;19938;-62
2022/04/13 05:52:13;;;;;;;;;;;;;;;3.56;79.92;99040.41;4931141;29;19982;-62
2022/04/13 05:54:39;;;;;;;;;;;;;;;3.52;80.40;99046.25;4936550;29;19957;-61
2022/04/13 05:57:04;;;;;;;;;;;;;;;3.59;80.46;99054.94;4930596;29;19927;-60
2022/04/13 05:59:30;;;;;;;;;;;;;;;3.55;80.67;99066.81;4930394;29;19931;-61
2022/04/13 06:01:57;;;;;;;;;;;;;;;3.53;80.51;99059.16;4944192;29;19981;-61
2022/04/13 06:04:23;;;;;;;;;;;;;;;3.43;80.59;99069.22;4911076;29;19930;-63
2022/04/13 06:06:49;;;;;;;;;;;;;;;3.51;81.04;99060.38;4925953;29;19930;-61
2022/04/13 06:09:14;;;;;;;;;;;;;;;3.61;80.42;99069.44;4914598;29;19942;-60
2022/04/13 06:11:40;;;;;;;;;;;;;;;3.59;80.13;99066.22;4912027;29;19933;-60
2022/04/13 06:14:05;;;;;;;;;;;;;;;3.64;80.54;99063.78;4914649;29;20408;-61
2022/04/13 06:16:31;;;;;;;;;;;;;;;3.55;80.06;99067.59;4928927;29;19922;-60
2022/04/13 06:18:56;;;;;;;;;;;;;;;3.60;80.24;99057.34;4913186;29;19931;-60
2022/04/13 06:21:22;;;;;;;;;;;;;;;3.63;80.42;99071.88;4924947;29;19926;-60
2022/04/13 06:23:47;;;;;;;;;;;;;;;3.66;80.26;99075.91;4911647;29;19931;-62
2022/04/13 06:26:13;;;;;;;;;;;;;;;3.69;79.95;99081.56;4923228;29;20249;-61
2022/04/13 06:28:39;;;;;;;;;;;;;;;3.75;79.87;99070.25;4931561;29;19978;-61
2022/04/13 06:31:04;;;;;;;;;;;;;;;3.77;79.79;99073.50;4931508;29;19926;-62
2022/04/13 06:33:30;;;;;;;;;;;;;;;3.76;79.69;99074.47;4930616;29;20384;-60
2022/04/13 06:35:55;;;;;;;;;;;;;;;3.67;80.01;99086.19;4922675;29;20528;-61
2022/04/13 06:38:21;;;;;;;;;;;;;;;3.72;80.02;99082.97;4926904;29;19930;-61
2022/04/13 06:40:46;;;;;;;;;;;;;;;3.77;80.02;99091.84;4927164;29;19926;-60
2022/04/13 06:43:12;;;;;;;;;;;;;;;3.85;79.95;99090.81;4931045;29;20320;-61
2022/04/13 06:45:39;;;;;;;;;;;;;;;3.87;79.56;99094.88;4915375;29;19927;-60
2022/04/13 06:48:05;;;;;;;;;;;;;;;3.85;79.84;99102.16;4927990;29;19965;-61
2022/04/13 06:50:31;;;;;;;;;;;;;;;3.80;79.57;99101.13;4928858;29;19926;-60
2022/04/13 06:52:57;;;;;;;;;;;;;;;3.86;79.70;99110.81;4933522;29;20379;-58
2022/04/13 06:55:22;;;;;;;;;;;;;;;3.91;79.58;99115.44;4932157;29;20064;-59
2022/04/13 06:57:48;;;;;;;;;;;;;;;3.95;79.13;99103.56;4939762;29;19926;-59
2022/04/13 07:00:14;;;;;;;;;;;;;;;3.85;79.64;99106.56;4932352;29;19954;-62
2022/04/13 07:02:39;;;;;;;;;;;;;;;3.83;79.18;99113.84;4932505;29;19934;-60
2022/04/13 07:05:05;;;;;;;;;;;;;;;3.76;80.34;99119.06;4933325;29;19977;-61
2022/04/13 07:07:31;;;;;;;;;;;;;;;3.93;79.79;99105.56;4917575;29;19934;-59
2022/04/13 07:09:57;;;;;;;;;;;;;;;4.03;79.15;99119.91;4932900;29;20312;-60
2022/04/13 07:12:22;;;;;;;;;;;;;;;3.97;79.01;99114.63;4918231;29;20396;-60
2022/04/13 07:14:48;;;;;;;;;;;;;;;3.90;79.37;99111.22;4951647;29;19973;-60
2022/04/13 07:17:13;;;;;;;;;;;;;;;3.96;79.33;99111.22;4949936;29;19930;-59
2022/04/13 07:19:39;;;;;;;;;;;;;;;4.02;78.93;99115.66;4951179;29;19930;-60
2022/04/13 07:22:04;;;;;;;;;;;;;;;4.05;78.91;99128.38;4931936;29;19982;-61
2022/04/13 07:24:30;;;;;;;;;;;;;;;4.02;78.66;99126.16;4937270;29;19938;-60
2022/04/13 07:26:55;;;;;;;;;;;;;;;4.14;78.68;99121.09;4932318;29;19974;-59
2022/04/13 07:29:21;;;;;;;;;;;;;;;4.22;78.09;99126.16;4934265;29;19930;-58
2022/04/13 07:31:46;;;;;;;;;;;;;;;4.29;78.26;99134.00;4939703;29;20500;-59
2022/04/13 07:34:12;;;;;;;;;;;;;;;4.15;78.71;99127.97;4950565;28;19931;-60
2022/04/13 07:36:37;;;;;;;;;;;;;;;4.25;78.83;99124.94;4955658;29;20363;-60
2022/04/13 07:39:03;;;;;;;;;;;;;;;4.22;78.49;99130.59;4936274;29;19969;-58
2022/04/13 07:41:29;;;;;;;;;;;;;;;4.30;78.70;99133.81;4953771;29;19930;-60
2022/04/13 07:43:55;;;;;;;;;;;;;;;4.35;78.61;99137.66;4950636;29;19953;-61
2022/04/13 07:46:21;;;;;;;;;;;;;;;4.34;78.42;99144.72;4954109;29;19927;-60
2022/04/13 07:48:47;;;;;;;;;;;;;;;4.29;79.03;99144.50;4955858;29;19931;-60
2022/04/13 07:51:12;;;;;;;;;;;;;;;4.27;78.86;99144.72;4938299;29;20025;-60
2022/04/13 07:53:38;;;;;;;;;;;;;;;4.22;79.18;99152.38;4935308;29;20418;-60
2022/04/13 07:56:03;;;;;;;;;;;;;;;4.32;78.67;99139.69;4934431;29;19938;-59
2022/04/13 07:58:29;;;;;;;;;;;;;;;4.36;78.69;99136.66;4900586;29;21460;-58
2022/04/13 08:00:54;;;;;;;;;;;;;;;4.34;78.64;99142.09;4953286;29;19927;-60
2022/04/13 08:03:20;;;;;;;;;;;;;;;4.36;78.64;99150.59;4953422;29;19931;-59
2022/04/13 08:05:45;;;;;;;;;;;;;;;4.38;78.95;99151.16;4953848;29;19975;-60
2022/04/13 08:08:11;;;;;;;;;;;;;;;4.26;79.79;99144.91;4954620;29;19930;-59
2022/04/13 08:10:36;;;;;;;;;;;;;;;4.17;79.72;99146.13;4936785;29;20359;-60
2022/04/13 08:13:02;;;;;;;;;;;;;;;4.30;78.96;99146.94;4933072;29;19930;-58
2022/04/13 08:15:27;;;;;;;;;;;;;;;4.24;79.38;99149.59;4936532;29;19927;-58
2022/04/13 08:17:53;;;;;;;;;;;;;;;4.12;79.08;99151.16;4949723;29;19960;-56
2022/04/13 08:20:18;;;;;;;;;;;;;;;4.11;79.80;99155.59;4955029;29;19933;-57
2022/04/13 08:22:44;;;;;;;;;;;;;;;4.31;79.00;99158.25;4955208;29;20407;-55
2022/04/13 08:25:10;;;;;;;;;;;;;;;4.26;78.74;99147.53;4954926;29;19930;-58
2022/04/13 08:27:37;;;;;;;;;;;;;;;4.24;79.07;99150.38;4955613;29;19926;-55
2022/04/13 08:30:03;;;;;;;;;;;;;;;4.20;79.70;99180.63;4935984;29;19977;-52
2022/04/13 08:32:28;;;;;;;;;;;;;;;4.24;79.24;99163.50;4951825;29;20407;-55
2022/04/13 08:34:54;;;;;;;;;;;;;;;4.27;79.15;99165.72;4953524;29;19930;-59
2022/04/13 08:37:20;;;;;;;;;;;;;;;4.33;78.65;99178.03;4947081;28;19926;-56
2022/04/13 08:39:45;;;;;;;;;;;;;;;4.31;79.44;99161.66;4933150;29;20029;-58
2022/04/13 08:42:12;;;;;;;;;;;;;;;4.24;79.61;99167.94;4915576;29;19927;-56
2022/04/13 08:44:42;;;;;;;;;;;;;;;4.40;78.81;99164.09;4930584;29;19931;-59
2022/04/13 08:47:11;;;;;;;;;;;;;;;4.42;78.53;99175.22;4911933;29;19927;-61
2022/04/13 08:49:37;;;;;;;;;;;;;;;4.38;78.87;99169.53;4931518;29;20319;-60
2022/04/13 08:52:03;;;;;;;;;;;;;;;4.45;78.63;99190.56;4915601;29;19933;-59
2022/04/13 08:54:31;;;;;;;;;;;;;;;4.52;77.68;99180.84;4913291;29;20466;-61
2022/04/13 08:56:56;;;;;;;;;;;;;;;4.59;77.96;99179.03;4932979;29;19927;-61
2022/04/13 08:59:26;;;;;;;;;;;;;;;4.76;77.58;99188.09;4914452;29;20319;-60
2022/04/13 09:02:04;;;;;;;;;;;;;;;4.86;76.91;99185.06;4914389;29;20021;-60
2022/04/13 09:04:30;;;;;;;;;;;;;;;4.87;77.44;99178.78;4913901;29;20435;-61
2022/04/13 09:06:59;;;;;;;;;;;;;;;4.77;77.15;99196.78;4931637;29;19934;-60
2022/04/13 09:09:30;;;;;;;;;;;;;;;4.88;77.35;99185.66;4931153;29;19935;-61
2022/04/13 09:11:57;;;;;;;;;;;;;;;4.84;76.50;99189.69;4931210;29;19926;-60
2022/04/13 09:14:23;;;;;;;;;;;;;;;4.86;76.45;99200.00;4914504;29;19941;-61
2022/04/13 09:16:48;;;;;;;;;;;;;;;4.86;76.92;99194.75;4912863;29;19953;-61
2022/04/13 09:19:14;;;;;;;;;;;;;;;4.85;77.50;99190.50;4930265;29;19938;-60
2022/04/13 09:21:39;;;;;;;;;;;;;;;4.86;76.90;99186.88;4930031;29;20361;-60
2022/04/13 09:24:07;;;;;;;;;;;;;;;4.86;77.42;99198.19;4930680;29;19931;-61
2022/04/13 09:26:33;;;;;;;;;;;;;;;4.78;77.41;99198.41;4914962;29;19978;-61
2022/04/13 09:28:58;;;;;;;;;;;;;;;4.72;77.38;99209.72;4913888;29;19930;-60
2022/04/13 09:31:24;;;;;;;;;;;;;;;4.71;77.54;99197.59;4929099;29;19974;-62
2022/04/13 09:33:49;;;;;;;;;;;;;;;4.63;78.04;99206.50;4914469;29;19979;-62
2022/04/13 09:36:15;;;;;;;;;;;;;;;4.75;78.57;99206.69;4913167;29;19927;-61
2022/04/13 09:38:41;;;;;;;;;;;;;;;4.71;78.57;99218.63;4929988;29;19938;-61
2022/04/13 09:41:07;;;;;;;;;;;;;;;4.78;77.93;99201.81;4932160;29;20419;-61
2022/04/13 09:43:32;;;;;;;;;;;;;;;4.76;77.64;99205.66;4931850;29;20159;-61
2022/04/13 09:45:58;;;;;;;;;;;;;;;4.66;78.26;99210.53;4928919;29;20387;-61
2022/04/13 09:48:23;;;;;;;;;;;;;;;4.60;78.17;99204.28;4930525;29;20400;-61
2022/04/13 09:50:50;;;;;;;;;;;;;;;4.63;78.77;99222.25;4898461;29;19926;-61
2022/04/13 09:53:16;;;;;;;;;;;;;;;4.64;78.10;99228.28;4929580;29;20393;-60
2022/04/13 09:55:43;;;;;;;;;;;;;;;4.64;79.07;99236.97;4932197;29;20460;-59
2022/04/13 09:58:09;;;;;;;;;;;;;;;4.61;78.82;99223.44;4914994;29;19930;-61
2022/04/13 10:00:35;;;;;;;;;;;;;;;4.64;78.28;99202.03;4927137;29;20312;-64
2022/04/13 10:03:07;;;;;;;;;;;;;;;4.70;77.63;99206.47;4949905;29;19937;-64
2022/04/13 10:05:33;;;;;;;;;;;;;;;4.78;77.06;99214.16;4946813;29;20024;-62
2022/04/13 10:08:15;;;;;;;;;;;;;;;4.86;77.21;99211.31;4934896;29;20013;-62
2022/04/13 10:10:53;;;;;;;;;;;;;;;4.96;76.62;99203.81;4898263;29;21019;-62
2022/04/13 10:14:11;;;;;;;;;;;;;;;5.04;76.15;99218.56;4910936;29;19988;-61
2022/04/13 10:17:16;;;;;;;;;;;;;;;5.17;75.43;99202.75;4898788;29;19949;-61
2022/04/13 10:19:43;;;;;;;;;;;;;;;5.25;75.75;99204.34;4906113;29;19930;-60
2022/04/13 10:22:09;;;;;;;;;;;;;;;5.21;75.60;99205.78;4949419;29;20063;-62
2022/04/13 10:24:35;;;;;;;;;;;;;;;5.29;75.64;99210.81;4949311;29;20448;-63
2022/04/13 10:27:01;;;;;;;;;;;;;;;5.24;75.77;99223.78;4931715;29;19957;-61
2022/04/13 10:29:26;;;;;;;;;;;;;;;5.37;74.87;99221.09;4929891;29;19930;-61
2022/04/13 10:32:04;;;;;;;;;;;;;;;5.29;75.11;99241.53;4932362;29;19974;-61
2022/04/13 10:34:31;;;;;;;;;;;;;;;5.24;76.21;99227.19;4933950;29;20400;-61
2022/04/13 10:36:57;;;;;;;;;;;;;;;5.12;75.99;99235.94;4932791;29;19962;-60
2022/04/13 10:39:23;;;;;;;;;;;;;;;5.10;76.40;99237.94;4915638;29;19931;-61
2022/04/13 10:41:49;;;;;;;;;;;;;;;5.04;76.79;99230.91;4932502;29;19927;-61
2022/04/13 10:44:23;;;;;;;;;;;;;;;4.85;77.33;99241.19;4932384;29;19938;-61
2022/04/13 10:46:49;;;;;;;;;;;;;;;4.88;77.21;99253.97;4912892;29;19988;-61
2022/04/13 10:49:15;;;;;;;;;;;;;;;4.83;77.15;99238.00;4930850;29;20191;-62
2022/04/13 10:51:40;;;;;;;;;;;;;;;4.80;77.45;99243.66;4912742;29;19931;-62
2022/04/13 10:54:06;;;;;;;;;;;;;;;4.78;77.25;99249.09;4898430;29;19931;-61
2022/04/13 10:56:32;;;;;;;;;;;;;;;4.93;77.38;99216.56;4937378;29;19977;-64
2022/04/13 10:59:01;;;;;;;;;;;;;;;5.07;77.30;99225.22;4949113;29;20024;-61
2022/04/13 11:01:44;;;;;;;;;;;;;;;5.03;76.75;99261.63;4933946;29;19934;-62
2022/04/13 11:04:10;;;;;;;;;;;;;;;4.95;76.53;99235.56;4948336;29;19930;-61
2022/04/13 11:06:35;;;;;;;;;;;;;;;5.05;76.67;99227.25;4949008;29;19969;-62
2022/04/13 11:09:04;;;;;;;;;;;;;;;5.21;75.40;99225.00;4949626;28;19934;-62
2022/04/13 11:11:31;;;;;;;;;;;;;;;5.18;75.01;99238.53;4939488;29;19933;-61
2022/04/13 11:13:57;;;;;;;;;;;;;;;5.32;74.92;99226.16;4938435;29;19937;-61
2022/04/13 11:16:23;;;;;;;;;;;;;;;5.50;73.57;99217.63;4948840;29;19934;-61
2022/04/13 11:19:01;;;;;;;;;;;;;;;5.37;73.83;99246.56;4921335;29;19966;-62
2022/04/13 11:21:29;;;;;;;;;;;;;;;5.33;74.07;99233.03;4939659;29;19969;-61
2022/04/13 11:23:54;;;;;;;;;;;;;;;5.52;73.69;99228.72;4919716;29;20601;-61
2022/04/13 11:26:35;;;;;;;;;;;;;;;5.39;74.15;99234.84;4937471;29;19954;-61
2022/04/13 11:29:09;;;;;;;;;;;;;;;5.42;75.52;99241.50;4937474;29;20371;-62
2022/04/13 11:31:54;;;;;;;;;;;;;;;5.32;75.41;99241.13;4939431;29;20408;-61
2022/04/13 11:34:26;;;;;;;;;;;;;;;5.36;75.49;99242.34;4939392;29;19970;-61
2022/04/13 11:36:52;;;;;;;;;;;;;;;5.52;74.76;99241.06;4920728;29;19993;-60
2022/04/13 11:39:37;;;;;;;;;;;;;;;5.41;75.29;99240.72;4957527;29;20404;-61
2022/04/13 11:42:03;;;;;;;;;;;;;;;5.50;74.98;99251.81;4925115;29;19935;-62
2022/04/13 11:44:45;;;;;;;;;;;;;;;5.34;75.73;99253.03;4956121;28;19937;-62
2022/04/13 11:47:15;;;;;;;;;;;;;;;5.40;73.91;99257.47;4950439;29;19974;-61
2022/04/13 11:50:10;;;;;;;;;;;;;;;5.50;73.50;99267.59;4936633;29;20026;-61
2022/04/13 11:52:42;;;;;;;;;;;;;;;5.67;72.64;99265.28;4936633;29;19933;-60
2022/04/13 11:55:21;;;;;;;;;;;;;;;5.86;72.25;99276.75;4937315;29;20392;-61
2022/04/13 11:57:51;;;;;;;;;;;;;;;5.93;71.88;99261.75;4937901;29;20503;-61
2022/04/13 12:00:45;;;;;;;;;;;;;;;5.84;72.35;99260.34;4937069;29;19930;-62
2022/04/13 12:03:14;;;;;;;;;;;;;;;5.84;71.85;99255.09;4937366;29;20618;-61
2022/04/13 12:05:41;;;;;;;;;;;;;;;5.91;72.39;99255.84;4936061;29;19933;-59
2022/04/13 12:08:20;;;;;;;;;;;;;;;5.96;72.31;99273.69;4954113;29;19930;-63
2022/04/13 12:10:50;;;;;;;;;;;;;;;5.91;72.02;99274.28;4922194;29;19926;-61
2022/04/13 12:13:17;;;;;;;;;;;;;;;5.94;71.75;99263.34;4953107;29;20691;-60
2022/04/13 12:15:47;;;;;;;;;;;;;;;6.00;71.94;99259.91;4903167;29;20389;-59
2022/04/13 12:18:12;;;;;;;;;;;;;;;6.14;71.81;99279.84;4946494;28;19930;-59
2022/04/13 12:20:38;;;;;;;;;;;;;;;6.27;70.54;99275.56;4951599;28;19926;-61
2022/04/13 12:23:33;;;;;;;;;;;;;;;6.18;70.60;99284.69;4940820;29;19934;-60
2022/04/13 12:25:59;;;;;;;;;;;;;;;6.36;70.44;99264.56;4936511;29;19933;-59
2022/04/13 12:28:24;;;;;;;;;;;;;;;6.56;70.16;99253.09;4921799;29;19931;-60
2022/04/13 12:31:00;;;;;;;;;;;;;;;6.64;69.13;99260.69;4953003;29;20024;-60
2022/04/13 12:33:26;;;;;;;;;;;;;;;6.73;69.10;99262.03;4953366;29;19962;-61
2022/04/13 12:35:56;;;;;;;;;;;;;;;6.85;68.55;99251.59;4945759;29;19933;-61
2022/04/13 12:38:22;;;;;;;;;;;;;;;6.79;69.14;99269.09;4937736;29;19957;-62
2022/04/13 12:40:48;;;;;;;;;;;;;;;6.77;68.73;99257.97;4933398;29;19942;-65
2022/04/13 12:43:26;;;;;;;;;;;;;;;6.96;68.61;99271.19;4947395;29;19938;-62
2022/04/13 12:45:52;;;;;;;;;;;;;;;6.98;68.96;99261.25;4950663;29;20394;-62
2022/04/13 12:48:17;;;;;;;;;;;;;;;7.16;68.46;99265.72;4950039;29;19941;-61
2022/04/13 12:50:59;;;;;;;;;;;;;;;7.21;68.00;99260.63;4938207;29;19938;-61
2022/04/13 12:53:25;;;;;;;;;;;;;;;7.35;67.85;99259.44;4950676;29;19931;-61
2022/04/13 12:55:51;;;;;;;;;;;;;;;7.24;68.28;99265.47;4942456;29;19962;-61
2022/04/13 12:58:17;;;;;;;;;;;;;;;7.12;68.96;99280.34;4915202;29;20030;-62